createdAt,value
2018-05-11T00:01:36.535Z,3.03
2018-05-11T00:04:03.235Z,3.10
2018-05-11T00:06:29.973Z,2.57
2018-05-11T00:08:56.680Z,3.43
2018-05-11T00:11:23.383Z,2.70
2018-05-11T00:13:50.191Z,2.87
2018-05-11T00:16:16.907Z,3.40
2018-05-11T00:18:43.641Z,3.60
2018-05-11T00:21:10.400Z,2.80
2018-05-11T00:23:37.066Z,2.90
2018-05-11T00:26:03.763Z,3.03
2018-05-11T00:28:30.463Z,3.27
2018-05-11T00:30:57.189Z,3.30
2018-05-11T00:33:24.130Z,2.80
2018-05-11T00:35:50.847Z,3.33
2018-05-11T00:38:18.370Z,3.00
2018-05-11T00:40:45.144Z,2.97
2018-05-11T00:43:11.812Z,2.90
2018-05-11T00:45:38.507Z,2.90
2018-05-11T00:48:05.223Z,2.90
2018-05-11T00:50:31.925Z,2.77
2018-05-11T00:52:58.627Z,3.07
2018-05-11T00:55:31.156Z,3.07
2018-05-11T00:57:57.860Z,3.10
2018-05-11T01:00:24.559Z,3.07
2018-05-11T01:02:51.269Z,3.10
2018-05-11T01:05:18.308Z,2.57
2018-05-11T01:07:45.004Z,2.83
2018-05-11T01:10:11.732Z,2.93
2018-05-11T01:12:38.431Z,3.37
2018-05-11T01:15:05.147Z,3.20
2018-05-11T01:17:31.872Z,3.47
2018-05-11T01:19:58.583Z,3.00
2018-05-11T01:22:25.547Z,3.30
2018-05-11T01:24:52.273Z,3.23
2018-05-11T01:27:18.975Z,2.60
2018-05-11T01:29:45.671Z,2.90
2018-05-11T01:32:12.399Z,2.97
2018-05-11T01:34:39.095Z,3.30
2018-05-11T01:37:05.825Z,3.30
2018-05-11T01:39:32.588Z,3.40
2018-05-11T01:41:59.295Z,3.13
2018-05-11T01:44:26.032Z,3.73
2018-05-11T01:46:52.723Z,3.00
2018-05-11T01:49:19.421Z,2.90
2018-05-11T01:51:46.150Z,3.23
2018-05-11T01:54:12.845Z,3.27
2018-05-11T01:56:39.573Z,3.30
2018-05-11T01:59:06.264Z,3.37
2018-05-11T02:01:32.963Z,3.47
2018-05-11T02:03:59.667Z,3.20
2018-05-11T02:06:26.706Z,3.50
2018-05-11T02:08:53.427Z,3.30
2018-05-11T02:11:20.120Z,3.13
2018-05-11T02:13:46.811Z,3.57
2018-05-11T02:16:13.506Z,3.40
2018-05-11T02:18:40.290Z,3.30
2018-05-11T02:21:06.947Z,3.40
2018-05-11T02:23:33.644Z,3.00
2018-05-11T02:26:00.576Z,3.00
2018-05-11T02:28:27.243Z,3.23
2018-05-11T02:30:53.932Z,3.13
2018-05-11T02:33:20.644Z,3.50
2018-05-11T02:35:47.347Z,3.70
2018-05-11T02:38:14.048Z,3.20
2018-05-11T02:40:41.272Z,4.00
2018-05-11T02:43:07.980Z,3.33
2018-05-11T02:45:34.696Z,3.47
2018-05-11T02:48:01.403Z,3.50
2018-05-11T02:50:28.107Z,3.17
2018-05-11T02:52:55.791Z,3.50
2018-05-11T02:55:22.503Z,3.43
2018-05-11T02:57:49.251Z,3.70
2018-05-11T03:00:17.245Z,3.50
2018-05-11T03:02:44.101Z,3.40
2018-05-11T03:05:10.812Z,3.57
2018-05-11T03:07:37.504Z,3.30
2018-05-11T03:10:04.220Z,3.57
2018-05-11T03:12:30.916Z,3.17
2018-05-11T03:14:57.671Z,3.50
2018-05-11T03:17:24.339Z,3.77
2018-05-11T03:19:51.032Z,3.60
2018-05-11T03:22:17.757Z,3.87
2018-05-11T03:24:44.471Z,3.20
2018-05-11T03:27:11.387Z,3.43
2018-05-11T03:29:38.079Z,3.23
2018-05-11T03:32:04.788Z,3.53
2018-05-11T03:34:31.507Z,3.47
2018-05-11T03:36:58.211Z,3.97
2018-05-11T03:39:24.915Z,3.10
2018-05-11T03:41:51.607Z,3.53
2018-05-11T03:44:18.307Z,3.70
2018-05-11T03:46:45.042Z,3.30
2018-05-11T03:49:11.744Z,3.20
2018-05-11T03:51:38.445Z,3.77
2018-05-11T03:54:05.407Z,3.30
2018-05-11T03:56:32.103Z,3.03
2018-05-11T03:58:58.824Z,3.30
2018-05-11T04:01:31.263Z,3.40
2018-05-11T04:04:03.791Z,3.57
2018-05-11T04:06:36.299Z,3.33
2018-05-11T04:09:03.000Z,4.13
2018-05-11T04:11:29.691Z,3.57
2018-05-11T04:13:56.389Z,3.53
2018-05-11T04:16:23.108Z,3.40
2018-05-11T04:18:49.801Z,3.20
2018-05-11T04:21:16.667Z,3.23
2018-05-11T04:23:43.403Z,3.83
2018-05-11T04:26:10.100Z,3.17
2018-05-11T04:28:36.835Z,3.60
2018-05-11T04:31:03.531Z,3.27
2018-05-11T04:33:30.235Z,3.60
2018-05-11T04:35:56.937Z,3.67
2018-05-11T04:38:23.641Z,3.87
2018-05-11T04:40:50.481Z,4.10
2018-05-11T04:43:17.189Z,4.23
2018-05-11T04:45:43.887Z,3.40
2018-05-11T04:48:11.604Z,3.37
2018-05-11T04:50:38.308Z,3.57
2018-05-11T04:53:05.044Z,3.63
2018-05-11T04:55:31.740Z,3.30
2018-05-11T04:57:58.434Z,3.70
2018-05-11T05:00:25.131Z,3.77
2018-05-11T05:02:51.847Z,3.70
2018-05-11T05:05:18.571Z,3.30
2018-05-11T05:07:45.441Z,3.67
2018-05-11T05:10:12.136Z,3.40
2018-05-11T05:12:38.831Z,3.57
2018-05-11T05:15:05.523Z,3.50
2018-05-11T05:17:32.243Z,3.73
2018-05-11T05:19:58.939Z,3.63
2018-05-11T05:22:25.644Z,3.57
2018-05-11T05:24:52.343Z,3.87
2018-05-11T05:27:19.040Z,3.10
2018-05-11T05:29:45.759Z,3.20
2018-05-11T05:32:12.461Z,4.00
2018-05-11T05:34:39.480Z,4.10
2018-05-11T05:37:06.179Z,3.83
2018-05-11T05:39:32.871Z,3.57
2018-05-11T05:41:59.595Z,3.87
2018-05-11T05:44:26.304Z,3.30
2018-05-11T05:46:52.996Z,3.00
2018-05-11T05:49:19.689Z,3.77
2018-05-11T05:51:46.385Z,3.23
2018-05-11T05:54:13.109Z,3.60
2018-05-11T05:56:39.807Z,3.20
2018-05-11T05:59:06.504Z,3.70
2018-05-11T06:01:33.208Z,4.07
2018-05-11T06:04:00.069Z,3.63
2018-05-11T06:06:26.784Z,3.57
2018-05-11T06:08:53.484Z,4.17
2018-05-11T06:11:20.189Z,3.60
2018-05-11T06:13:46.891Z,3.37
2018-05-11T06:16:13.603Z,3.67
2018-05-11T06:18:40.321Z,3.67
2018-05-11T06:21:07.013Z,3.40
2018-05-11T06:23:33.720Z,3.37
2018-05-11T06:26:00.722Z,3.07
2018-05-11T06:28:27.423Z,3.50
2018-05-11T06:30:54.240Z,3.70
2018-05-11T06:33:21.147Z,3.53
2018-05-11T06:35:50.683Z,3.63
2018-05-11T06:38:17.404Z,3.43
2018-05-11T06:40:44.101Z,3.30
2018-05-11T06:43:10.803Z,3.47
2018-05-11T06:45:38.035Z,3.63
2018-05-11T06:48:04.742Z,3.90
2018-05-11T06:50:31.451Z,3.37
2018-05-11T06:52:58.163Z,3.30
2018-05-11T06:55:24.903Z,3.57
2018-05-11T06:57:51.597Z,3.47
2018-05-11T07:00:18.306Z,3.40
2018-05-11T07:02:45.033Z,3.67
2018-05-11T07:05:11.731Z,3.57
2018-05-11T07:07:38.474Z,3.77
2018-05-11T07:10:05.196Z,3.50
2018-05-11T07:12:31.891Z,3.17
2018-05-11T07:14:58.591Z,3.50
2018-05-11T07:17:25.296Z,3.60
2018-05-11T07:19:52.022Z,3.40
2018-05-11T07:22:18.794Z,3.33
2018-05-11T07:24:45.491Z,3.87
2018-05-11T07:27:12.192Z,3.73
2018-05-11T07:29:38.903Z,3.60
2018-05-11T07:32:05.613Z,3.63
2018-05-11T07:34:32.339Z,3.83
2018-05-11T07:36:59.043Z,3.63
2018-05-11T07:39:25.746Z,3.63
2018-05-11T07:41:52.457Z,3.53
2018-05-11T07:44:19.161Z,3.37
2018-05-11T07:46:45.896Z,3.60
2018-05-11T07:49:12.646Z,3.57
2018-05-11T07:51:39.429Z,3.50
2018-05-11T07:54:06.088Z,3.53
2018-05-11T07:56:32.787Z,3.93
2018-05-11T07:58:59.515Z,3.90
2018-05-11T08:01:26.249Z,3.50
2018-05-11T08:03:52.978Z,3.67
2018-05-11T08:06:19.706Z,3.47
2018-05-11T08:08:46.404Z,4.00
2018-05-11T08:11:13.147Z,3.53
2018-05-11T08:13:39.839Z,3.67
2018-05-11T08:16:06.537Z,3.57
2018-05-11T08:18:33.243Z,4.00
2018-05-11T08:20:59.951Z,4.10
2018-05-11T08:23:26.675Z,3.90
2018-05-11T08:25:53.375Z,3.50
2018-05-11T08:28:20.076Z,3.63
2018-05-11T08:30:46.771Z,4.20
2018-05-11T08:33:13.471Z,3.77
2018-05-11T08:35:40.196Z,3.63
2018-05-11T08:38:06.899Z,3.50
2018-05-11T08:40:33.606Z,3.70
2018-05-11T08:43:00.303Z,3.53
2018-05-11T08:45:27.053Z,3.90
2018-05-11T08:47:53.761Z,4.00
2018-05-11T08:50:20.455Z,3.70
2018-05-11T08:52:47.171Z,4.40
2018-05-11T08:55:13.863Z,3.80
2018-05-11T08:57:40.595Z,3.83
2018-05-11T09:00:07.296Z,3.90
2018-05-11T09:02:33.995Z,4.30
2018-05-11T09:05:00.716Z,3.87
2018-05-11T09:07:27.423Z,3.77
2018-05-11T09:09:54.149Z,4.30
2018-05-11T09:12:21.506Z,4.27
2018-05-11T09:14:48.217Z,4.10
2018-05-11T09:17:15.036Z,3.80
2018-05-11T09:19:41.712Z,3.90
2018-05-11T09:22:08.472Z,3.70
2018-05-11T09:24:35.171Z,4.03
2018-05-11T09:27:01.872Z,4.20
2018-05-11T09:29:28.572Z,3.83
2018-05-11T09:31:55.297Z,4.10
2018-05-11T09:34:22.162Z,3.77
2018-05-11T09:36:48.862Z,4.13
2018-05-11T09:39:15.552Z,4.10
2018-05-11T09:41:42.255Z,4.37
2018-05-11T09:44:08.951Z,4.00
2018-05-11T09:46:35.675Z,3.57
2018-05-11T09:49:02.376Z,3.93
2018-05-11T09:51:29.072Z,4.00
2018-05-11T09:53:55.989Z,4.13
2018-05-11T09:56:22.687Z,3.70
2018-05-11T09:58:49.415Z,4.37
2018-05-11T10:01:16.108Z,4.43
2018-05-11T10:03:42.804Z,3.97
2018-05-11T10:06:09.495Z,4.40
2018-05-11T10:08:36.195Z,4.40
2018-05-11T10:11:02.911Z,4.20
2018-05-11T10:13:29.806Z,4.00
2018-05-11T10:15:56.508Z,4.50
2018-05-11T10:18:23.199Z,4.07
2018-05-11T10:20:49.934Z,4.00
2018-05-11T10:23:16.723Z,4.60
2018-05-11T10:25:43.364Z,4.20
2018-05-11T10:28:10.063Z,4.20
2018-05-11T10:30:36.770Z,5.23
2018-05-11T10:33:03.488Z,4.03
2018-05-11T10:35:30.284Z,4.40
2018-05-11T10:37:56.983Z,4.30
2018-05-11T10:40:23.683Z,4.17
2018-05-11T10:42:50.384Z,4.60
2018-05-11T10:45:17.088Z,4.20
2018-05-11T10:47:43.812Z,4.50
2018-05-11T10:50:10.519Z,4.63
2018-05-11T10:52:37.219Z,4.40
2018-05-11T10:55:03.919Z,4.65
2018-05-11T10:57:30.616Z,4.25
2018-05-11T10:59:57.344Z,4.57
2018-05-11T11:02:24.073Z,4.65
2018-05-11T11:04:50.777Z,4.82
2018-05-11T11:07:17.513Z,4.10
2018-05-11T11:09:44.217Z,4.30
2018-05-11T11:12:10.948Z,4.70
2018-05-11T11:14:37.717Z,4.82
2018-05-11T11:17:04.427Z,3.97
2018-05-11T11:19:31.124Z,4.00
2018-05-11T11:21:57.824Z,4.47
2018-05-11T11:24:24.547Z,4.40
2018-05-11T11:26:51.244Z,4.70
2018-05-11T11:29:17.943Z,5.12
2018-05-11T11:31:44.671Z,4.47
2018-05-11T11:34:11.364Z,4.70
2018-05-11T11:36:38.092Z,4.60
2018-05-11T11:39:05.704Z,4.70
2018-05-11T11:41:32.404Z,4.40
2018-05-11T11:43:59.101Z,5.10
2018-05-11T11:46:25.803Z,4.12
2018-05-11T11:48:52.530Z,5.00
2018-05-11T11:51:19.411Z,4.55
2018-05-11T11:53:46.112Z,4.40
2018-05-11T11:56:18.859Z,4.80
2018-05-11T11:58:45.511Z,4.90
2018-05-11T12:01:12.239Z,4.80
2018-05-11T12:03:38.951Z,4.45
2018-05-11T12:06:05.656Z,4.72
2018-05-11T12:08:32.352Z,4.72
2018-05-11T12:10:59.056Z,5.25
2018-05-11T12:13:25.776Z,4.95
2018-05-11T12:15:52.469Z,5.00
2018-05-11T12:18:19.384Z,4.78
2018-05-11T12:20:46.087Z,5.72
2018-05-11T12:23:12.783Z,4.85
2018-05-11T12:25:39.511Z,4.78
2018-05-11T12:28:06.209Z,5.00
2018-05-11T12:30:32.935Z,4.67
2018-05-11T12:32:59.637Z,5.10
2018-05-11T12:35:26.339Z,4.93
2018-05-11T12:37:53.061Z,4.67
2018-05-11T12:40:19.767Z,5.07
2018-05-11T12:42:47.007Z,4.53
2018-05-11T12:45:14.651Z,4.83
2018-05-11T12:47:41.499Z,5.40
2018-05-11T12:50:08.224Z,4.37
2018-05-11T12:52:34.931Z,5.20
2018-05-11T12:55:01.627Z,4.60
2018-05-11T12:57:28.348Z,4.97
2018-05-11T12:59:55.048Z,5.10
2018-05-11T13:02:21.775Z,4.90
2018-05-11T13:04:48.479Z,5.20
2018-05-11T13:07:15.194Z,5.40
2018-05-11T13:09:42.157Z,4.80
2018-05-11T13:12:08.855Z,5.07
2018-05-11T13:14:35.579Z,5.10
2018-05-11T13:17:02.277Z,5.03
2018-05-11T13:19:28.996Z,5.33
2018-05-11T13:21:55.692Z,4.90
2018-05-11T13:24:22.597Z,4.80
2018-05-11T13:26:49.296Z,5.20
2018-05-11T13:29:15.992Z,4.90
2018-05-11T13:31:42.691Z,5.13
2018-05-11T13:34:09.387Z,4.57
2018-05-11T13:36:36.095Z,5.07
2018-05-11T13:39:02.791Z,4.87
2018-05-11T13:41:29.489Z,5.80
2018-05-11T13:43:56.203Z,5.43
2018-05-11T13:46:22.903Z,4.80
2018-05-11T13:48:49.604Z,4.97
2018-05-11T13:51:16.333Z,5.03
2018-05-11T13:53:43.043Z,5.33
2018-05-11T13:56:09.785Z,4.83
2018-05-11T13:58:36.482Z,5.23
2018-05-11T14:01:03.179Z,5.07
2018-05-11T14:03:29.897Z,5.30
2018-05-11T14:05:56.611Z,4.73
2018-05-11T14:08:23.331Z,5.20
2018-05-11T14:10:50.032Z,5.03
2018-05-11T14:13:16.724Z,5.00
2018-05-11T14:15:43.427Z,5.20
2018-05-11T14:18:10.125Z,5.20
2018-05-11T14:20:36.856Z,5.70
2018-05-11T14:23:03.555Z,4.90
2018-05-11T14:25:30.255Z,5.20
2018-05-11T14:27:56.951Z,5.30
2018-05-11T14:30:23.650Z,5.67
2018-05-11T14:32:50.359Z,4.90
2018-05-11T14:35:17.056Z,5.47
2018-05-11T14:37:43.755Z,5.03
2018-05-11T14:40:10.452Z,4.53
2018-05-11T14:42:37.166Z,4.73
2018-05-11T14:45:03.899Z,5.00
2018-05-11T14:47:30.599Z,4.87
2018-05-11T14:49:57.303Z,4.60
2018-05-11T14:52:24.011Z,5.03
2018-05-11T14:54:50.703Z,5.33
2018-05-11T14:57:17.432Z,5.00
2018-05-11T14:59:44.132Z,4.83
2018-05-11T15:02:10.835Z,4.93
2018-05-11T15:04:37.536Z,4.80
2018-05-11T15:07:04.238Z,4.80
2018-05-11T15:09:30.963Z,4.87
2018-05-11T15:11:57.657Z,5.10
2018-05-11T15:14:24.360Z,5.20
2018-05-11T15:16:51.068Z,5.23
2018-05-11T15:19:17.773Z,5.20
2018-05-11T15:21:44.500Z,4.90
2018-05-11T15:24:11.196Z,5.10
2018-05-11T15:26:37.893Z,4.80
2018-05-11T15:29:04.596Z,5.27
2018-05-11T15:31:31.306Z,4.73
2018-05-11T15:33:58.027Z,5.00
2018-05-11T15:36:24.731Z,5.10
2018-05-11T15:38:51.431Z,5.30
2018-05-11T15:41:18.295Z,4.60
2018-05-11T15:43:45.011Z,5.80
2018-05-11T15:46:11.727Z,4.67
2018-05-11T15:48:38.529Z,4.23
2018-05-11T15:51:05.371Z,4.97
2018-05-11T15:53:32.069Z,4.63
2018-05-11T15:55:58.775Z,4.80
2018-05-11T15:58:25.495Z,5.13
2018-05-11T16:00:52.196Z,5.07
2018-05-11T16:03:18.896Z,4.63
2018-05-11T16:05:45.629Z,5.00
2018-05-11T16:08:12.333Z,5.10
2018-05-11T16:10:39.062Z,5.47
2018-05-11T16:13:05.772Z,5.23
2018-05-11T16:15:32.568Z,5.63
2018-05-11T16:17:59.283Z,4.70
2018-05-11T16:20:26.044Z,5.20
2018-05-11T16:22:52.836Z,5.03
2018-05-11T16:25:19.539Z,5.27
2018-05-11T16:27:46.240Z,4.97
2018-05-11T16:30:12.945Z,5.10
2018-05-11T16:32:39.649Z,5.03
2018-05-11T16:35:06.388Z,4.97
2018-05-11T16:37:33.232Z,4.57
2018-05-11T16:39:59.928Z,5.10
2018-05-11T16:42:26.621Z,5.00
2018-05-11T16:44:53.324Z,4.77
2018-05-11T16:47:20.031Z,4.90
2018-05-11T16:49:46.732Z,4.97
2018-05-11T16:52:13.436Z,5.37
2018-05-11T16:54:40.131Z,4.97
2018-05-11T16:57:06.824Z,5.30
2018-05-11T16:59:33.655Z,5.20
2018-05-11T17:02:00.351Z,4.57
2018-05-11T17:04:27.044Z,5.07
2018-05-11T17:13:36.395Z,4.70
2018-05-11T17:16:03.089Z,5.00
2018-05-11T17:18:29.822Z,5.27
2018-05-11T17:20:56.528Z,4.87
2018-05-11T17:23:23.230Z,5.10
2018-05-11T17:25:49.932Z,5.30
2018-05-11T17:28:16.632Z,5.10
2018-05-11T17:30:43.360Z,5.23
2018-05-11T17:33:10.059Z,5.50
2018-05-11T17:35:36.755Z,5.03
2018-05-11T17:38:03.447Z,5.10
2018-05-11T17:40:30.144Z,5.20
2018-05-11T17:42:56.859Z,4.90
2018-05-11T17:45:23.587Z,5.47
2018-05-11T17:47:50.294Z,5.10
2018-05-11T17:50:16.995Z,5.53
2018-05-11T17:52:43.691Z,4.83
2018-05-11T17:55:10.521Z,4.97
2018-05-11T17:57:37.220Z,5.80
2018-05-11T18:00:03.911Z,4.87
2018-05-11T18:02:30.611Z,4.93
2018-05-11T18:04:57.307Z,5.53
2018-05-11T18:07:24.035Z,5.67
2018-05-11T18:09:50.728Z,5.13
2018-05-11T18:12:17.460Z,5.43
2018-05-11T18:14:44.141Z,5.33
2018-05-11T18:17:10.836Z,5.33
2018-05-11T18:19:37.540Z,5.53
2018-05-11T18:22:04.239Z,5.83
2018-05-11T18:24:30.935Z,5.73
2018-05-11T18:26:57.633Z,5.20
2018-05-11T18:29:24.342Z,5.60
2018-05-11T18:31:51.058Z,5.43
2018-05-11T18:34:17.756Z,4.90
2018-05-11T18:36:44.506Z,5.00
2018-05-11T18:39:11.210Z,5.50
2018-05-11T18:41:37.908Z,5.47
2018-05-11T18:44:04.632Z,5.20
2018-05-11T18:46:31.341Z,5.70
2018-05-11T18:48:58.035Z,6.50
2018-05-11T18:51:24.738Z,6.37
2018-05-11T18:53:51.691Z,6.50
2018-05-11T18:56:18.188Z,7.37
2018-05-11T18:58:44.915Z,6.40
2018-05-11T19:01:11.888Z,6.10
2018-05-11T19:03:38.592Z,5.67
2018-05-11T19:06:05.294Z,6.00
2018-05-11T19:08:32.016Z,5.73
2018-05-11T19:10:58.722Z,5.83
2018-05-11T19:13:25.448Z,5.50
2018-05-11T19:15:52.144Z,5.90
2018-05-11T19:18:18.839Z,5.50
2018-05-11T19:20:45.559Z,5.60
2018-05-11T19:23:12.551Z,5.77
2018-05-11T19:25:39.243Z,5.33
2018-05-11T19:28:05.949Z,5.40
2018-05-11T19:30:32.649Z,5.40
2018-05-11T19:32:59.379Z,5.67
2018-05-11T19:35:26.075Z,5.33
2018-05-11T19:37:52.787Z,5.87
2018-05-11T19:40:19.483Z,5.30
2018-05-11T19:42:46.184Z,5.53
2018-05-11T19:45:12.915Z,5.20
2018-05-11T19:47:39.619Z,5.47
2018-05-11T19:50:06.360Z,5.40
2018-05-11T19:52:33.121Z,6.03
2018-05-11T19:54:59.823Z,6.20
2018-05-11T19:57:26.580Z,5.57
2018-05-11T19:59:53.244Z,5.67
2018-05-11T20:02:19.940Z,5.80
2018-05-11T20:04:46.783Z,5.67
2018-05-11T20:07:13.444Z,5.70
2018-05-11T20:09:40.147Z,5.90
2018-05-11T20:12:06.843Z,5.40
2018-05-11T20:14:33.544Z,5.60
2018-05-11T20:17:00.275Z,5.60
2018-05-11T20:19:26.980Z,5.47
2018-05-11T20:21:53.677Z,5.93
2018-05-11T20:24:20.387Z,4.97
2018-05-11T20:26:47.083Z,5.53
2018-05-11T20:29:13.809Z,5.53
2018-05-11T20:31:40.764Z,5.30
2018-05-11T20:34:07.460Z,5.80
2018-05-11T20:36:34.153Z,5.43
2018-05-11T20:39:00.851Z,5.67
2018-05-11T20:41:27.606Z,5.20
2018-05-11T20:43:54.303Z,5.43
2018-05-11T20:46:21.007Z,5.20
2018-05-11T20:48:47.823Z,5.40
2018-05-11T20:51:14.589Z,5.07
2018-05-11T20:53:41.321Z,5.50
2018-05-11T20:56:08.020Z,4.93
2018-05-11T20:58:34.721Z,5.13
2018-05-11T21:01:01.427Z,5.27
2018-05-11T21:03:28.147Z,5.40
2018-05-11T21:05:54.863Z,4.90
2018-05-11T21:08:21.565Z,5.60
2018-05-11T21:10:48.265Z,4.93
2018-05-11T21:13:14.967Z,5.77
2018-05-11T21:15:41.664Z,4.97
2018-05-11T21:18:08.383Z,5.33
2018-05-11T21:20:35.088Z,5.27
2018-05-11T21:23:02.001Z,5.20
2018-05-11T21:25:28.699Z,5.90
2018-05-11T21:27:55.396Z,5.20
2018-05-11T21:30:22.118Z,5.40
2018-05-11T21:32:48.813Z,5.30
2018-05-11T21:35:15.515Z,5.73
2018-05-11T21:37:42.212Z,5.63
2018-05-11T21:40:08.912Z,5.40
2018-05-11T21:42:35.631Z,5.40
2018-05-11T21:45:02.331Z,5.33
2018-05-11T21:47:29.040Z,6.10
2018-05-11T21:49:55.738Z,5.67
2018-05-11T21:52:22.439Z,5.70
2018-05-11T21:54:49.163Z,5.70
2018-05-11T21:57:15.882Z,5.97
2018-05-11T21:59:42.579Z,5.57
2018-05-11T22:02:09.276Z,5.90
2018-05-11T22:04:35.971Z,5.33
2018-05-11T22:07:02.691Z,5.87
2018-05-11T22:09:29.387Z,5.93
2018-05-11T22:11:56.099Z,5.70
2018-05-11T22:14:22.799Z,5.93
2018-05-11T22:16:49.496Z,5.97
2018-05-11T22:19:16.216Z,5.60
2018-05-11T22:21:42.923Z,5.50
2018-05-11T22:24:09.611Z,5.73
2018-05-11T22:26:36.304Z,5.50
2018-05-11T22:29:03.000Z,5.40
2018-05-11T22:31:29.727Z,5.67
2018-05-11T22:33:56.420Z,5.40
2018-05-11T22:36:23.128Z,5.63
2018-05-11T22:38:49.827Z,5.77
2018-05-11T22:41:16.560Z,5.53
2018-05-11T22:43:43.287Z,5.60
2018-05-11T22:46:09.983Z,5.37
2018-05-11T22:48:36.691Z,5.90
2018-05-11T22:51:03.387Z,5.47
2018-05-11T22:53:30.083Z,5.30
2018-05-11T22:55:56.807Z,5.67
2018-05-11T22:58:23.504Z,5.67
2018-05-11T23:00:50.208Z,5.70
2018-05-11T23:03:16.902Z,5.80
2018-05-11T23:05:43.634Z,5.97
2018-05-11T23:08:10.359Z,5.60
2018-05-11T23:10:37.051Z,5.70
2018-05-11T23:13:03.748Z,5.80
2018-05-11T23:15:30.514Z,5.40
2018-05-11T23:17:57.204Z,6.00
2018-05-11T23:20:23.932Z,5.80
2018-05-11T23:22:50.635Z,5.40
2018-05-11T23:25:17.337Z,5.53
2018-05-11T23:27:44.113Z,5.10
2018-05-11T23:30:10.755Z,6.10
2018-05-11T23:32:37.476Z,5.47
2018-05-11T23:35:04.227Z,5.60
2018-05-11T23:37:30.916Z,5.23
2018-05-11T23:39:57.621Z,5.13
2018-05-11T23:42:24.323Z,4.83
2018-05-11T23:44:51.039Z,5.27
2018-05-11T23:47:17.732Z,5.20
2018-05-11T23:49:44.494Z,5.70
2018-05-11T23:52:11.227Z,5.20
2018-05-11T23:54:37.944Z,5.70
2018-05-11T23:57:04.663Z,5.60
2018-05-11T23:59:31.364Z,5.30
